sensor_id;sensor_type;location;lat;lon;timestamp;P1;durP1;ratioP1;P2;durP2;ratioP2
2672;SDS011;1346;51.558;6.996;2022-07-04T00:02:10;3.00;;;1.00;;
2672;SDS011;1346;51.558;6.996;2022-07-04T00:04:38;3.23;;;1.00;;
2672;SDS011;1346;51.558;6.996;2022-07-04T00:07:05;3.13;;;1.43;;
2672;SDS011;1346;51.558;6.996;2022-07-04T00:09:32;2.43;;;1.30;;
2672;SDS011;1346;51.558;6.996;2022-07-04T00:11:59;5.10;;;1.23;;
2672;SDS011;1346;51.558;6.996;2022-07-04T00:14:25;2.27;;;1.37;;
2672;SDS011;1346;51.558;6.996;2022-07-04T00:16:52;3.10;;;1.33;;
2672;SDS011;1346;51.558;6.996;2022-07-04T00:19:20;4.70;;;1.33;;
2672;SDS011;1346;51.558;6.996;2022-07-04T00:21:48;4.20;;;1.43;;
2672;SDS011;1346;51.558;6.996;2022-07-04T00:24:15;3.33;;;1.37;;
2672;SDS011;1346;51.558;6.996;2022-07-04T00:26:42;4.03;;;1.33;;
2672;SDS011;1346;51.558;6.996;2022-07-04T00:29:09;2.50;;;1.10;;
2672;SDS011;1346;51.558;6.996;2022-07-04T00:31:36;3.10;;;1.20;;
2672;SDS011;1346;51.558;6.996;2022-07-04T00:34:03;2.40;;;1.40;;
2672;SDS011;1346;51.558;6.996;2022-07-04T00:36:30;3.07;;;1.50;;
2672;SDS011;1346;51.558;6.996;2022-07-04T00:38:58;3.80;;;1.70;;
2672;SDS011;1346;51.558;6.996;2022-07-04T00:41:25;2.50;;;1.30;;
2672;SDS011;1346;51.558;6.996;2022-07-04T00:44:02;2.73;;;1.47;;
2672;SDS011;1346;51.558;6.996;2022-07-04T00:46:30;3.13;;;1.60;;
2672;SDS011;1346;51.558;6.996;2022-07-04T00:48:58;4.23;;;1.20;;
2672;SDS011;1346;51.558;6.996;2022-07-04T00:51:25;4.00;;;1.50;;
2672;SDS011;1346;51.558;6.996;2022-07-04T00:53:53;2.73;;;1.60;;
2672;SDS011;1346;51.558;6.996;2022-07-04T00:56:22;3.70;;;2.07;;
2672;SDS011;1346;51.558;6.996;2022-07-04T00:58:50;4.40;;;1.70;;
2672;SDS011;1346;51.558;6.996;2022-07-04T01:01:18;5.57;;;1.70;;
2672;SDS011;1346;51.558;6.996;2022-07-04T01:03:45;2.00;;;1.43;;
2672;SDS011;1346;51.558;6.996;2022-07-04T01:06:13;3.80;;;2.17;;
2672;SDS011;1346;51.558;6.996;2022-07-04T01:08:42;3.67;;;1.80;;
2672;SDS011;1346;51.558;6.996;2022-07-04T01:11:09;3.43;;;1.87;;
2672;SDS011;1346;51.558;6.996;2022-07-04T01:13:38;2.90;;;1.67;;
2672;SDS011;1346;51.558;6.996;2022-07-04T01:16:06;4.70;;;2.07;;
2672;SDS011;1346;51.558;6.996;2022-07-04T01:18:34;5.23;;;1.90;;
2672;SDS011;1346;51.558;6.996;2022-07-04T01:21:03;6.50;;;2.00;;
2672;SDS011;1346;51.558;6.996;2022-07-04T01:23:31;5.10;;;1.80;;
2672;SDS011;1346;51.558;6.996;2022-07-04T01:26:02;6.80;;;2.07;;
2672;SDS011;1346;51.558;6.996;2022-07-04T01:28:29;5.97;;;2.20;;
2672;SDS011;1346;51.558;6.996;2022-07-04T01:30:55;3.40;;;2.53;;
2672;SDS011;1346;51.558;6.996;2022-07-04T01:33:22;5.87;;;1.90;;
2672;SDS011;1346;51.558;6.996;2022-07-04T01:35:49;3.20;;;2.40;;
2672;SDS011;1346;51.558;6.996;2022-07-04T01:38:18;12.37;;;2.30;;
2672;SDS011;1346;51.558;6.996;2022-07-04T01:40:44;2.43;;;1.97;;
2672;SDS011;1346;51.558;6.996;2022-07-04T01:43:11;3.77;;;2.00;;
2672;SDS011;1346;51.558;6.996;2022-07-04T01:45:38;4.97;;;2.60;;
2672;SDS011;1346;51.558;6.996;2022-07-04T01:48:06;5.87;;;2.77;;
2672;SDS011;1346;51.558;6.996;2022-07-04T01:50:35;5.27;;;2.40;;
2672;SDS011;1346;51.558;6.996;2022-07-04T01:53:02;11.20;;;3.80;;
2672;SDS011;1346;51.558;6.996;2022-07-04T01:55:31;3.70;;;2.40;;
2672;SDS011;1346;51.558;6.996;2022-07-04T01:57:58;5.73;;;2.50;;
2672;SDS011;1346;51.558;6.996;2022-07-04T02:00:26;6.63;;;2.30;;
2672;SDS011;1346;51.558;6.996;2022-07-04T02:03:11;4.90;;;2.40;;
2672;SDS011;1346;51.558;6.996;2022-07-04T02:05:38;6.70;;;2.57;;
2672;SDS011;1346;51.558;6.996;2022-07-04T02:08:05;8.13;;;2.93;;
2672;SDS011;1346;51.558;6.996;2022-07-04T02:10:34;4.90;;;2.70;;
2672;SDS011;1346;51.558;6.996;2022-07-04T02:13:02;7.37;;;2.80;;
2672;SDS011;1346;51.558;6.996;2022-07-04T02:15:29;5.23;;;2.40;;
2672;SDS011;1346;51.558;6.996;2022-07-04T02:17:57;7.30;;;3.70;;
2672;SDS011;1346;51.558;6.996;2022-07-04T02:20:25;3.13;;;2.30;;
2672;SDS011;1346;51.558;6.996;2022-07-04T02:22:52;4.87;;;3.00;;
2672;SDS011;1346;51.558;6.996;2022-07-04T02:25:19;5.43;;;3.30;;
2672;SDS011;1346;51.558;6.996;2022-07-04T02:27:48;6.77;;;3.00;;
2672;SDS011;1346;51.558;6.996;2022-07-04T02:30:15;4.87;;;3.40;;
2672;SDS011;1346;51.558;6.996;2022-07-04T02:32:42;5.33;;;2.50;;
2672;SDS011;1346;51.558;6.996;2022-07-04T02:35:09;5.33;;;3.00;;
2672;SDS011;1346;51.558;6.996;2022-07-04T02:37:36;8.87;;;2.73;;
2672;SDS011;1346;51.558;6.996;2022-07-04T02:40:04;4.50;;;3.37;;
2672;SDS011;1346;51.558;6.996;2022-07-04T02:42:34;8.30;;;3.10;;
2672;SDS011;1346;51.558;6.996;2022-07-04T02:45:04;5.50;;;3.00;;
2672;SDS011;1346;51.558;6.996;2022-07-04T02:47:32;4.93;;;2.37;;
2672;SDS011;1346;51.558;6.996;2022-07-04T02:49:59;6.73;;;2.47;;
2672;SDS011;1346;51.558;6.996;2022-07-04T02:52:27;5.57;;;3.10;;
2672;SDS011;1346;51.558;6.996;2022-07-04T02:54:54;9.43;;;3.00;;
2672;SDS011;1346;51.558;6.996;2022-07-04T02:57:21;5.47;;;3.13;;
2672;SDS011;1346;51.558;6.996;2022-07-04T02:59:48;5.13;;;3.60;;
2672;SDS011;1346;51.558;6.996;2022-07-04T03:02:17;7.77;;;3.30;;
2672;SDS011;1346;51.558;6.996;2022-07-04T03:04:44;7.87;;;3.80;;
2672;SDS011;1346;51.558;6.996;2022-07-04T03:07:10;7.20;;;4.57;;
2672;SDS011;1346;51.558;6.996;2022-07-04T03:09:37;10.00;;;4.57;;
2672;SDS011;1346;51.558;6.996;2022-07-04T03:12:05;8.83;;;4.20;;
2672;SDS011;1346;51.558;6.996;2022-07-04T03:14:33;8.93;;;4.77;;
2672;SDS011;1346;51.558;6.996;2022-07-04T03:17:00;7.00;;;4.60;;
2672;SDS011;1346;51.558;6.996;2022-07-04T03:19:28;8.30;;;6.53;;
2672;SDS011;1346;51.558;6.996;2022-07-04T03:21:55;11.27;;;6.13;;
2672;SDS011;1346;51.558;6.996;2022-07-04T03:24:22;11.60;;;7.17;;
2672;SDS011;1346;51.558;6.996;2022-07-04T03:26:49;11.20;;;7.70;;
2672;SDS011;1346;51.558;6.996;2022-07-04T03:29:16;12.10;;;7.67;;
2672;SDS011;1346;51.558;6.996;2022-07-04T03:31:43;9.53;;;6.87;;
2672;SDS011;1346;51.558;6.996;2022-07-04T03:34:10;8.23;;;6.50;;
2672;SDS011;1346;51.558;6.996;2022-07-04T03:36:39;9.37;;;6.40;;
2672;SDS011;1346;51.558;6.996;2022-07-04T03:39:05;8.00;;;5.50;;
2672;SDS011;1346;51.558;6.996;2022-07-04T03:41:32;6.90;;;5.17;;
2672;SDS011;1346;51.558;6.996;2022-07-04T03:44:01;5.40;;;3.90;;
2672;SDS011;1346;51.558;6.996;2022-07-04T03:46:28;6.50;;;4.17;;
2672;SDS011;1346;51.558;6.996;2022-07-04T03:48:55;9.23;;;4.73;;
2672;SDS011;1346;51.558;6.996;2022-07-04T03:51:22;6.37;;;4.70;;
2672;SDS011;1346;51.558;6.996;2022-07-04T03:53:50;7.43;;;4.17;;
2672;SDS011;1346;51.558;6.996;2022-07-04T03:56:17;7.13;;;4.77;;
2672;SDS011;1346;51.558;6.996;2022-07-04T03:58:44;6.40;;;3.83;;
2672;SDS011;1346;51.558;6.996;2022-07-04T04:01:13;12.63;;;4.47;;
2672;SDS011;1346;51.558;6.996;2022-07-04T04:03:41;7.93;;;4.40;;
2672;SDS011;1346;51.558;6.996;2022-07-04T04:06:25;5.73;;;4.13;;
2672;SDS011;1346;51.558;6.996;2022-07-04T04:08:54;7.23;;;4.33;;
2672;SDS011;1346;51.558;6.996;2022-07-04T04:11:21;10.60;;;5.50;;
2672;SDS011;1346;51.558;6.996;2022-07-04T04:13:48;6.60;;;3.73;;
2672;SDS011;1346;51.558;6.996;2022-07-04T04:16:15;8.40;;;4.37;;
2672;SDS011;1346;51.558;6.996;2022-07-04T04:18:42;10.93;;;5.70;;
2672;SDS011;1346;51.558;6.996;2022-07-04T04:21:09;10.00;;;5.57;;
2672;SDS011;1346;51.558;6.996;2022-07-04T04:23:36;8.03;;;4.90;;
2672;SDS011;1346;51.558;6.996;2022-07-04T04:26:04;8.07;;;5.33;;
2672;SDS011;1346;51.558;6.996;2022-07-04T04:28:31;6.93;;;5.60;;
2672;SDS011;1346;51.558;6.996;2022-07-04T04:30:58;8.57;;;6.30;;
2672;SDS011;1346;51.558;6.996;2022-07-04T04:33:24;12.70;;;7.00;;
2672;SDS011;1346;51.558;6.996;2022-07-04T04:35:51;11.70;;;8.03;;
2672;SDS011;1346;51.558;6.996;2022-07-04T04:38:18;12.00;;;8.43;;
2672;SDS011;1346;51.558;6.996;2022-07-04T04:40:45;8.97;;;6.97;;
2672;SDS011;1346;51.558;6.996;2022-07-04T04:43:13;8.90;;;6.10;;
2672;SDS011;1346;51.558;6.996;2022-07-04T04:45:40;9.30;;;6.33;;
2672;SDS011;1346;51.558;6.996;2022-07-04T04:48:07;7.63;;;5.80;;
2672;SDS011;1346;51.558;6.996;2022-07-04T04:50:34;11.90;;;6.50;;
2672;SDS011;1346;51.558;6.996;2022-07-04T04:53:01;7.50;;;5.87;;
2672;SDS011;1346;51.558;6.996;2022-07-04T04:55:28;7.80;;;6.37;;
2672;SDS011;1346;51.558;6.996;2022-07-04T04:57:55;10.47;;;6.60;;
2672;SDS011;1346;51.558;6.996;2022-07-04T05:00:24;12.30;;;5.63;;
2672;SDS011;1346;51.558;6.996;2022-07-04T05:02:51;13.10;;;5.87;;
2672;SDS011;1346;51.558;6.996;2022-07-04T05:05:18;9.17;;;5.57;;
2672;SDS011;1346;51.558;6.996;2022-07-04T05:07:45;6.60;;;5.20;;
2672;SDS011;1346;51.558;6.996;2022-07-04T05:10:12;8.77;;;6.20;;
2672;SDS011;1346;51.558;6.996;2022-07-04T05:12:40;8.40;;;5.63;;
2672;SDS011;1346;51.558;6.996;2022-07-04T05:15:08;6.60;;;4.87;;
2672;SDS011;1346;51.558;6.996;2022-07-04T05:17:37;13.43;;;8.70;;
2672;SDS011;1346;51.558;6.996;2022-07-04T05:20:05;11.83;;;5.73;;
2672;SDS011;1346;51.558;6.996;2022-07-04T05:22:33;10.50;;;6.33;;
2672;SDS011;1346;51.558;6.996;2022-07-04T05:25:00;10.13;;;5.63;;
2672;SDS011;1346;51.558;6.996;2022-07-04T05:27:27;8.70;;;5.70;;
2672;SDS011;1346;51.558;6.996;2022-07-04T05:29:55;9.00;;;6.53;;
2672;SDS011;1346;51.558;6.996;2022-07-04T05:32:22;13.10;;;6.80;;
2672;SDS011;1346;51.558;6.996;2022-07-04T05:34:51;6.40;;;4.87;;
2672;SDS011;1346;51.558;6.996;2022-07-04T05:37:18;11.27;;;5.27;;
2672;SDS011;1346;51.558;6.996;2022-07-04T05:39:45;9.70;;;5.67;;
2672;SDS011;1346;51.558;6.996;2022-07-04T05:42:12;8.73;;;5.33;;
2672;SDS011;1346;51.558;6.996;2022-07-04T05:44:39;9.70;;;4.80;;
2672;SDS011;1346;51.558;6.996;2022-07-04T05:47:05;8.73;;;5.80;;
2672;SDS011;1346;51.558;6.996;2022-07-04T05:49:32;9.67;;;6.13;;
2672;SDS011;1346;51.558;6.996;2022-07-04T05:52:01;10.60;;;6.30;;
2672;SDS011;1346;51.558;6.996;2022-07-04T05:54:28;9.40;;;5.33;;
2672;SDS011;1346;51.558;6.996;2022-07-04T05:56:55;9.37;;;5.50;;
2672;SDS011;1346;51.558;6.996;2022-07-04T05:59:22;9.73;;;6.20;;
2672;SDS011;1346;51.558;6.996;2022-07-04T06:01:49;12.43;;;5.33;;
2672;SDS011;1346;51.558;6.996;2022-07-04T06:04:16;9.67;;;5.93;;
2672;SDS011;1346;51.558;6.996;2022-07-04T06:06:43;10.37;;;5.37;;
2672;SDS011;1346;51.558;6.996;2022-07-04T06:09:11;11.77;;;5.27;;
2672;SDS011;1346;51.558;6.996;2022-07-04T06:11:38;13.10;;;5.50;;
2672;SDS011;1346;51.558;6.996;2022-07-04T06:14:05;9.47;;;5.77;;
2672;SDS011;1346;51.558;6.996;2022-07-04T06:16:32;11.73;;;4.80;;
2672;SDS011;1346;51.558;6.996;2022-07-04T06:18:59;8.70;;;4.97;;
2672;SDS011;1346;51.558;6.996;2022-07-04T06:21:26;15.90;;;5.13;;
2672;SDS011;1346;51.558;6.996;2022-07-04T06:23:53;10.10;;;5.33;;
2672;SDS011;1346;51.558;6.996;2022-07-04T06:26:21;10.73;;;5.50;;
2672;SDS011;1346;51.558;6.996;2022-07-04T06:28:48;6.57;;;4.77;;
2672;SDS011;1346;51.558;6.996;2022-07-04T06:31:15;9.73;;;4.83;;
2672;SDS011;1346;51.558;6.996;2022-07-04T06:33:42;6.70;;;4.70;;
2672;SDS011;1346;51.558;6.996;2022-07-04T06:36:27;6.10;;;4.20;;
2672;SDS011;1346;51.558;6.996;2022-07-04T06:38:54;13.73;;;5.70;;
2672;SDS011;1346;51.558;6.996;2022-07-04T06:41:22;10.27;;;4.93;;
2672;SDS011;1346;51.558;6.996;2022-07-04T06:43:49;6.97;;;4.40;;
2672;SDS011;1346;51.558;6.996;2022-07-04T06:46:16;6.27;;;4.10;;
2672;SDS011;1346;51.558;6.996;2022-07-04T06:48:43;8.03;;;5.47;;
2672;SDS011;1346;51.558;6.996;2022-07-04T06:51:10;13.13;;;5.97;;
2672;SDS011;1346;51.558;6.996;2022-07-04T06:53:38;9.80;;;4.93;;
2672;SDS011;1346;51.558;6.996;2022-07-04T06:56:06;7.97;;;4.27;;
2672;SDS011;1346;51.558;6.996;2022-07-04T06:58:35;6.30;;;4.00;;
2672;SDS011;1346;51.558;6.996;2022-07-04T07:01:01;6.27;;;4.30;;
2672;SDS011;1346;51.558;6.996;2022-07-04T07:03:28;9.87;;;3.80;;
2672;SDS011;1346;51.558;6.996;2022-07-04T07:05:55;12.87;;;3.63;;
2672;SDS011;1346;51.558;6.996;2022-07-04T07:08:22;8.87;;;3.47;;
2672;SDS011;1346;51.558;6.996;2022-07-04T07:10:49;8.30;;;3.10;;
2672;SDS011;1346;51.558;6.996;2022-07-04T07:13:16;6.40;;;3.17;;
2672;SDS011;1346;51.558;6.996;2022-07-04T07:15:44;6.23;;;3.30;;
2672;SDS011;1346;51.558;6.996;2022-07-04T07:18:11;7.27;;;2.60;;
2672;SDS011;1346;51.558;6.996;2022-07-04T07:20:38;5.33;;;2.67;;
2672;SDS011;1346;51.558;6.996;2022-07-04T07:23:05;7.10;;;3.20;;
2672;SDS011;1346;51.558;6.996;2022-07-04T07:25:32;6.50;;;2.90;;
2672;SDS011;1346;51.558;6.996;2022-07-04T07:27:59;8.60;;;3.50;;
2672;SDS011;1346;51.558;6.996;2022-07-04T07:30:26;7.57;;;3.43;;
2672;SDS011;1346;51.558;6.996;2022-07-04T07:32:54;12.77;;;4.53;;
2672;SDS011;1346;51.558;6.996;2022-07-04T07:35:21;7.87;;;3.60;;
2672;SDS011;1346;51.558;6.996;2022-07-04T07:37:48;6.90;;;3.10;;
2672;SDS011;1346;51.558;6.996;2022-07-04T07:40:15;7.73;;;2.40;;
2672;SDS011;1346;51.558;6.996;2022-07-04T07:42:42;7.83;;;2.90;;
2672;SDS011;1346;51.558;6.996;2022-07-04T07:45:09;7.90;;;2.50;;
2672;SDS011;1346;51.558;6.996;2022-07-04T07:47:36;4.73;;;2.67;;
2672;SDS011;1346;51.558;6.996;2022-07-04T07:50:05;8.50;;;2.10;;
2672;SDS011;1346;51.558;6.996;2022-07-04T07:52:32;3.33;;;1.93;;
2672;SDS011;1346;51.558;6.996;2022-07-04T07:54:59;5.03;;;1.83;;
2672;SDS011;1346;51.558;6.996;2022-07-04T07:57:26;3.30;;;1.87;;
2672;SDS011;1346;51.558;6.996;2022-07-04T07:59:53;5.73;;;2.30;;
2672;SDS011;1346;51.558;6.996;2022-07-04T08:02:20;5.57;;;2.77;;
2672;SDS011;1346;51.558;6.996;2022-07-04T08:05:10;6.70;;;2.30;;
2672;SDS011;1346;51.558;6.996;2022-07-04T08:07:37;5.97;;;2.80;;
2672;SDS011;1346;51.558;6.996;2022-07-04T08:10:05;6.67;;;2.73;;
2672;SDS011;1346;51.558;6.996;2022-07-04T08:12:33;7.07;;;2.03;;
2672;SDS011;1346;51.558;6.996;2022-07-04T08:15:00;3.17;;;1.73;;
2672;SDS011;1346;51.558;6.996;2022-07-04T08:17:27;7.80;;;2.07;;
2672;SDS011;1346;51.558;6.996;2022-07-04T08:19:54;7.50;;;2.20;;
2672;SDS011;1346;51.558;6.996;2022-07-04T08:22:22;8.37;;;2.33;;
2672;SDS011;1346;51.558;6.996;2022-07-04T08:24:49;6.03;;;1.77;;
2672;SDS011;1346;51.558;6.996;2022-07-04T08:27:16;4.77;;;1.97;;
2672;SDS011;1346;51.558;6.996;2022-07-04T08:29:43;4.13;;;1.30;;
2672;SDS011;1346;51.558;6.996;2022-07-04T08:32:10;7.00;;;1.80;;
2672;SDS011;1346;51.558;6.996;2022-07-04T08:34:37;8.33;;;1.53;;
2672;SDS011;1346;51.558;6.996;2022-07-04T08:37:04;3.90;;;1.10;;
2672;SDS011;1346;51.558;6.996;2022-07-04T08:39:32;3.30;;;1.40;;
2672;SDS011;1346;51.558;6.996;2022-07-04T08:42:01;5.27;;;1.60;;
2672;SDS011;1346;51.558;6.996;2022-07-04T08:44:32;4.83;;;1.50;;
2672;SDS011;1346;51.558;6.996;2022-07-04T08:47:04;3.67;;;1.80;;
2672;SDS011;1346;51.558;6.996;2022-07-04T08:49:33;3.77;;;2.00;;
2672;SDS011;1346;51.558;6.996;2022-07-04T08:52:01;4.33;;;2.10;;
2672;SDS011;1346;51.558;6.996;2022-07-04T08:54:32;8.70;;;2.70;;
2672;SDS011;1346;51.558;6.996;2022-07-04T08:57:17;5.60;;;2.20;;
2672;SDS011;1346;51.558;6.996;2022-07-04T09:00:02;11.20;;;3.00;;
2672;SDS011;1346;51.558;6.996;2022-07-04T09:02:33;12.50;;;3.00;;
2672;SDS011;1346;51.558;6.996;2022-07-04T09:05:02;6.40;;;3.10;;
2672;SDS011;1346;51.558;6.996;2022-07-04T09:07:32;4.80;;;2.10;;
2672;SDS011;1346;51.558;6.996;2022-07-04T09:10:01;5.73;;;2.90;;
2672;SDS011;1346;51.558;6.996;2022-07-04T09:12:30;12.10;;;2.70;;
2672;SDS011;1346;51.558;6.996;2022-07-04T09:14:57;7.83;;;1.70;;
2672;SDS011;1346;51.558;6.996;2022-07-04T09:17:24;5.83;;;2.07;;
2672;SDS011;1346;51.558;6.996;2022-07-04T09:20:11;4.43;;;2.10;;
2672;SDS011;1346;51.558;6.996;2022-07-04T09:22:40;4.03;;;2.07;;
2672;SDS011;1346;51.558;6.996;2022-07-04T09:25:09;6.33;;;1.77;;
2672;SDS011;1346;51.558;6.996;2022-07-04T09:27:39;3.80;;;1.30;;
2672;SDS011;1346;51.558;6.996;2022-07-04T09:30:10;5.17;;;2.10;;
2672;SDS011;1346;51.558;6.996;2022-07-04T09:32:39;11.13;;;2.00;;
2672;SDS011;1346;51.558;6.996;2022-07-04T09:35:08;6.40;;;1.90;;
2672;SDS011;1346;51.558;6.996;2022-07-04T09:37:37;4.80;;;1.83;;
2672;SDS011;1346;51.558;6.996;2022-07-04T09:40:07;5.27;;;2.03;;
2672;SDS011;1346;51.558;6.996;2022-07-04T09:42:40;3.93;;;1.80;;
2672;SDS011;1346;51.558;6.996;2022-07-04T09:45:08;7.53;;;1.80;;
2672;SDS011;1346;51.558;6.996;2022-07-04T09:47:37;3.77;;;1.67;;
2672;SDS011;1346;51.558;6.996;2022-07-04T09:50:07;3.93;;;1.30;;
2672;SDS011;1346;51.558;6.996;2022-07-04T09:52:46;4.40;;;1.70;;
2672;SDS011;1346;51.558;6.996;2022-07-04T09:55:26;4.13;;;1.77;;
2672;SDS011;1346;51.558;6.996;2022-07-04T09:57:56;3.57;;;1.63;;
2672;SDS011;1346;51.558;6.996;2022-07-04T10:00:26;3.83;;;1.60;;
2672;SDS011;1346;51.558;6.996;2022-07-04T10:02:56;4.20;;;1.80;;
2672;SDS011;1346;51.558;6.996;2022-07-04T10:05:41;5.80;;;2.27;;
2672;SDS011;1346;51.558;6.996;2022-07-04T10:08:08;4.07;;;1.70;;
2672;SDS011;1346;51.558;6.996;2022-07-04T10:10:37;5.33;;;1.97;;
2672;SDS011;1346;51.558;6.996;2022-07-04T10:13:06;3.80;;;1.67;;
2672;SDS011;1346;51.558;6.996;2022-07-04T10:15:36;3.50;;;1.40;;
2672;SDS011;1346;51.558;6.996;2022-07-04T10:18:05;4.13;;;1.80;;
2672;SDS011;1346;51.558;6.996;2022-07-04T10:20:34;5.67;;;1.80;;
2672;SDS011;1346;51.558;6.996;2022-07-04T10:23:02;6.47;;;1.63;;
2672;SDS011;1346;51.558;6.996;2022-07-04T10:25:29;5.97;;;1.70;;
2672;SDS011;1346;51.558;6.996;2022-07-04T10:27:57;4.93;;;2.30;;
2672;SDS011;1346;51.558;6.996;2022-07-04T10:30:25;5.30;;;1.83;;
2672;SDS011;1346;51.558;6.996;2022-07-04T10:32:55;3.80;;;1.53;;
2672;SDS011;1346;51.558;6.996;2022-07-04T10:38:17;3.50;;;1.30;;
2672;SDS011;1346;51.558;6.996;2022-07-04T10:40:45;5.73;;;1.60;;
2672;SDS011;1346;51.558;6.996;2022-07-04T10:46:30;5.10;;;1.53;;
2672;SDS011;1346;51.558;6.996;2022-07-04T10:49:01;3.40;;;1.50;;
2672;SDS011;1346;51.558;6.996;2022-07-04T10:51:39;7.77;;;1.63;;
2672;SDS011;1346;51.558;6.996;2022-07-04T10:54:11;3.50;;;1.70;;
2672;SDS011;1346;51.558;6.996;2022-07-04T10:56:41;4.90;;;2.03;;
2672;SDS011;1346;51.558;6.996;2022-07-04T10:59:19;4.93;;;1.90;;
2672;SDS011;1346;51.558;6.996;2022-07-04T11:01:51;5.77;;;1.30;;
2672;SDS011;1346;51.558;6.996;2022-07-04T11:04:50;3.87;;;1.27;;
2672;SDS011;1346;51.558;6.996;2022-07-04T11:07:21;3.40;;;1.00;;
2672;SDS011;1346;51.558;6.996;2022-07-04T11:10:19;2.53;;;1.00;;
2672;SDS011;1346;51.558;6.996;2022-07-04T11:13:01;3.67;;;1.30;;
2672;SDS011;1346;51.558;6.996;2022-07-04T11:18:37;2.60;;;0.87;;
2672;SDS011;1346;51.558;6.996;2022-07-04T11:23:58;9.03;;;1.40;;
2672;SDS011;1346;51.558;6.996;2022-07-04T11:26:25;3.20;;;1.00;;
2672;SDS011;1346;51.558;6.996;2022-07-04T11:28:52;2.67;;;1.10;;
2672;SDS011;1346;51.558;6.996;2022-07-04T11:31:21;1.77;;;0.80;;
2672;SDS011;1346;51.558;6.996;2022-07-04T11:34:02;1.57;;;0.93;;
2672;SDS011;1346;51.558;6.996;2022-07-04T11:36:29;3.27;;;0.90;;
2672;SDS011;1346;51.558;6.996;2022-07-04T11:38:56;5.70;;;1.50;;
2672;SDS011;1346;51.558;6.996;2022-07-04T11:41:26;2.07;;;0.80;;
2672;SDS011;1346;51.558;6.996;2022-07-04T11:44:13;2.53;;;0.90;;
2672;SDS011;1346;51.558;6.996;2022-07-04T11:49:47;5.57;;;0.90;;
2672;SDS011;1346;51.558;6.996;2022-07-04T11:52:17;14.73;;;1.80;;
2672;SDS011;1346;51.558;6.996;2022-07-04T11:54:47;2.03;;;1.07;;
2672;SDS011;1346;51.558;6.996;2022-07-04T11:57:16;2.90;;;0.97;;
2672;SDS011;1346;51.558;6.996;2022-07-04T11:59:56;5.27;;;1.40;;
2672;SDS011;1346;51.558;6.996;2022-07-04T12:02:27;2.53;;;1.07;;
2672;SDS011;1346;51.558;6.996;2022-07-04T12:04:55;3.80;;;0.87;;
2672;SDS011;1346;51.558;6.996;2022-07-04T12:07:23;3.97;;;1.50;;
2672;SDS011;1346;51.558;6.996;2022-07-04T12:09:52;2.97;;;1.20;;
2672;SDS011;1346;51.558;6.996;2022-07-04T12:12:20;2.43;;;1.20;;
2672;SDS011;1346;51.558;6.996;2022-07-04T12:15:01;4.53;;;1.40;;
2672;SDS011;1346;51.558;6.996;2022-07-04T12:17:33;4.00;;;1.00;;
2672;SDS011;1346;51.558;6.996;2022-07-04T12:20:03;2.80;;;0.90;;
2672;SDS011;1346;51.558;6.996;2022-07-04T12:22:39;2.57;;;1.23;;
2672;SDS011;1346;51.558;6.996;2022-07-04T12:25:18;4.50;;;1.20;;
2672;SDS011;1346;51.558;6.996;2022-07-04T12:27:53;1.60;;;1.00;;
2672;SDS011;1346;51.558;6.996;2022-07-04T12:30:23;2.60;;;1.00;;
2672;SDS011;1346;51.558;6.996;2022-07-04T12:32:52;4.53;;;1.17;;
2672;SDS011;1346;51.558;6.996;2022-07-04T12:35:41;2.73;;;1.10;;
2672;SDS011;1346;51.558;6.996;2022-07-04T12:38:12;1.57;;;0.80;;
2672;SDS011;1346;51.558;6.996;2022-07-04T12:40:52;2.10;;;1.30;;
2672;SDS011;1346;51.558;6.996;2022-07-04T12:43:22;5.07;;;1.33;;
2672;SDS011;1346;51.558;6.996;2022-07-04T12:45:51;3.07;;;1.50;;
2672;SDS011;1346;51.558;6.996;2022-07-04T12:48:23;4.30;;;1.17;;
2672;SDS011;1346;51.558;6.996;2022-07-04T12:50:52;7.67;;;1.33;;
2672;SDS011;1346;51.558;6.996;2022-07-04T12:53:21;2.53;;;1.00;;
2672;SDS011;1346;51.558;6.996;2022-07-04T12:55:48;4.07;;;1.10;;
2672;SDS011;1346;51.558;6.996;2022-07-04T12:58:16;2.10;;;0.90;;
2672;SDS011;1346;51.558;6.996;2022-07-04T13:00:43;2.90;;;1.03;;
2672;SDS011;1346;51.558;6.996;2022-07-04T13:03:10;2.40;;;1.00;;
2672;SDS011;1346;51.558;6.996;2022-07-04T13:05:38;2.60;;;1.00;;
2672;SDS011;1346;51.558;6.996;2022-07-04T13:08:05;5.47;;;1.10;;
2672;SDS011;1346;51.558;6.996;2022-07-04T13:10:33;3.47;;;1.27;;
2672;SDS011;1346;51.558;6.996;2022-07-04T13:13:00;3.27;;;1.10;;
2672;SDS011;1346;51.558;6.996;2022-07-04T13:15:27;3.73;;;1.03;;
2672;SDS011;1346;51.558;6.996;2022-07-04T13:17:54;4.70;;;1.10;;
2672;SDS011;1346;51.558;6.996;2022-07-04T13:20:21;8.27;;;1.33;;
2672;SDS011;1346;51.558;6.996;2022-07-04T13:22:49;2.50;;;1.07;;
2672;SDS011;1346;51.558;6.996;2022-07-04T13:25:16;1.30;;;0.90;;
2672;SDS011;1346;51.558;6.996;2022-07-04T13:27:44;2.17;;;1.13;;
2672;SDS011;1346;51.558;6.996;2022-07-04T13:30:11;3.13;;;1.17;;
2672;SDS011;1346;51.558;6.996;2022-07-04T13:32:38;4.40;;;1.30;;
2672;SDS011;1346;51.558;6.996;2022-07-04T13:35:06;3.27;;;0.90;;
2672;SDS011;1346;51.558;6.996;2022-07-04T13:37:33;4.20;;;1.20;;
2672;SDS011;1346;51.558;6.996;2022-07-04T13:40:02;1.83;;;0.90;;
2672;SDS011;1346;51.558;6.996;2022-07-04T13:42:31;2.17;;;1.00;;
2672;SDS011;1346;51.558;6.996;2022-07-04T13:45:15;3.53;;;1.20;;
2672;SDS011;1346;51.558;6.996;2022-07-04T13:47:43;2.80;;;1.20;;
2672;SDS011;1346;51.558;6.996;2022-07-04T13:50:10;3.87;;;1.10;;
2672;SDS011;1346;51.558;6.996;2022-07-04T13:52:37;2.60;;;1.00;;
2672;SDS011;1346;51.558;6.996;2022-07-04T13:55:05;5.03;;;1.13;;
2672;SDS011;1346;51.558;6.996;2022-07-04T13:57:33;2.27;;;0.93;;
2672;SDS011;1346;51.558;6.996;2022-07-04T14:00:01;4.20;;;1.17;;
2672;SDS011;1346;51.558;6.996;2022-07-04T14:02:29;3.27;;;1.10;;
2672;SDS011;1346;51.558;6.996;2022-07-04T14:04:56;6.90;;;1.20;;
2672;SDS011;1346;51.558;6.996;2022-07-04T14:07:23;4.20;;;1.47;;
2672;SDS011;1346;51.558;6.996;2022-07-04T14:09:51;3.80;;;1.50;;
2672;SDS011;1346;51.558;6.996;2022-07-04T14:12:19;5.20;;;1.23;;
2672;SDS011;1346;51.558;6.996;2022-07-04T14:14:46;4.43;;;1.23;;
2672;SDS011;1346;51.558;6.996;2022-07-04T14:17:13;4.07;;;1.10;;
2672;SDS011;1346;51.558;6.996;2022-07-04T14:19:40;3.27;;;1.17;;
2672;SDS011;1346;51.558;6.996;2022-07-04T14:22:07;2.93;;;0.90;;
2672;SDS011;1346;51.558;6.996;2022-07-04T14:24:34;6.90;;;1.20;;
2672;SDS011;1346;51.558;6.996;2022-07-04T14:27:01;2.83;;;0.97;;
2672;SDS011;1346;51.558;6.996;2022-07-04T14:29:29;5.57;;;1.40;;
2672;SDS011;1346;51.558;6.996;2022-07-04T14:31:59;4.13;;;0.90;;
2672;SDS011;1346;51.558;6.996;2022-07-04T14:34:26;3.77;;;1.07;;
2672;SDS011;1346;51.558;6.996;2022-07-04T14:36:53;3.03;;;0.90;;
2672;SDS011;1346;51.558;6.996;2022-07-04T14:39:19;2.03;;;0.70;;
2672;SDS011;1346;51.558;6.996;2022-07-04T14:41:47;3.53;;;0.80;;
2672;SDS011;1346;51.558;6.996;2022-07-04T14:44:15;3.30;;;0.97;;
2672;SDS011;1346;51.558;6.996;2022-07-04T14:46:43;2.20;;;0.77;;
2672;SDS011;1346;51.558;6.996;2022-07-04T14:49:10;5.27;;;0.80;;
2672;SDS011;1346;51.558;6.996;2022-07-04T14:51:37;2.80;;;0.93;;
2672;SDS011;1346;51.558;6.996;2022-07-04T14:54:05;2.13;;;0.80;;
2672;SDS011;1346;51.558;6.996;2022-07-04T14:56:32;3.63;;;1.13;;
2672;SDS011;1346;51.558;6.996;2022-07-04T14:58:59;1.47;;;0.80;;
2672;SDS011;1346;51.558;6.996;2022-07-04T15:01:26;2.43;;;1.20;;
2672;SDS011;1346;51.558;6.996;2022-07-04T15:03:54;2.53;;;1.17;;
2672;SDS011;1346;51.558;6.996;2022-07-04T15:06:21;6.70;;;1.47;;
2672;SDS011;1346;51.558;6.996;2022-07-04T15:08:48;3.77;;;1.30;;
2672;SDS011;1346;51.558;6.996;2022-07-04T15:11:15;5.37;;;0.93;;
2672;SDS011;1346;51.558;6.996;2022-07-04T15:13:42;4.30;;;1.10;;
2672;SDS011;1346;51.558;6.996;2022-07-04T15:16:09;2.43;;;0.87;;
2672;SDS011;1346;51.558;6.996;2022-07-04T15:18:36;6.83;;;0.90;;
2672;SDS011;1346;51.558;6.996;2022-07-04T15:21:04;2.00;;;1.00;;
2672;SDS011;1346;51.558;6.996;2022-07-04T15:23:48;4.50;;;1.00;;
2672;SDS011;1346;51.558;6.996;2022-07-04T15:26:33;1.67;;;0.90;;
2672;SDS011;1346;51.558;6.996;2022-07-04T15:29:00;2.70;;;0.90;;
2672;SDS011;1346;51.558;6.996;2022-07-04T15:31:27;3.63;;;1.07;;
2672;SDS011;1346;51.558;6.996;2022-07-04T15:33:54;2.40;;;1.00;;
2672;SDS011;1346;51.558;6.996;2022-07-04T15:36:22;2.00;;;1.00;;
2672;SDS011;1346;51.558;6.996;2022-07-04T15:38:49;2.60;;;0.97;;
2672;SDS011;1346;51.558;6.996;2022-07-04T15:41:16;3.53;;;0.90;;